sensor_id;sensor_type;location;lat;lon;timestamp;temperature;humidity
1005;DHT22;491;53.480;10.174;2023-02-27T00:01:03;-1.50;99.90
1005;DHT22;491;53.480;10.174;2023-02-27T00:03:29;-1.40;99.90
1005;DHT22;491;53.480;10.174;2023-02-27T00:05:55;-1.50;99.90
1005;DHT22;491;53.480;10.174;2023-02-27T00:08:21;-1.60;99.90
1005;DHT22;491;53.480;10.174;2023-02-27T00:10:47;-1.40;99.90
1005;DHT22;491;53.480;10.174;2023-02-27T00:13:12;-1.50;99.90
1005;DHT22;491;53.480;10.174;2023-02-27T00:15:38;-1.70;99.90
1005;DHT22;491;53.480;10.174;2023-02-27T00:18:05;-1.80;99.90
1005;DHT22;491;53.480;10.174;2023-02-27T07:02:59;1.20;99.90
1005;DHT22;491;53.480;10.174;2023-02-27T07:05:29;1.40;99.90
1005;DHT22;491;53.480;10.174;2023-02-27T07:07:54;2.20;1.00
1005;DHT22;491;53.480;10.174;2023-02-27T07:10:20;3.20;1.00
1005;DHT22;491;53.480;10.174;2023-02-27T07:12:45;3.70;99.90
1005;DHT22;491;53.480;10.174;2023-02-27T07:15:11;4.30;99.90
1005;DHT22;491;53.480;10.174;2023-02-27T07:17:36;4.40;99.90
1005;DHT22;491;53.480;10.174;2023-02-27T07:20:03;4.70;99.90
1005;DHT22;491;53.480;10.174;2023-02-27T07:22:29;5.10;1.00
1005;DHT22;491;53.480;10.174;2023-02-27T07:24:57;4.70;1.00
1005;DHT22;491;53.480;10.174;2023-02-27T07:27:26;4.20;99.90
1005;DHT22;491;53.480;10.174;2023-02-27T07:29:51;5.00;1.00
1005;DHT22;491;53.480;10.174;2023-02-27T07:32:17;5.50;1.00
1005;DHT22;491;53.480;10.174;2023-02-27T07:34:42;5.50;1.00
1005;DHT22;491;53.480;10.174;2023-02-27T07:37:08;6.10;1.00
1005;DHT22;491;53.480;10.174;2023-02-27T07:39:33;6.50;99.90
1005;DHT22;491;53.480;10.174;2023-02-27T07:41:59;6.50;99.90
1005;DHT22;491;53.480;10.174;2023-02-27T07:44:24;6.70;99.90
1005;DHT22;491;53.480;10.174;2023-02-27T07:46:50;7.20;99.90
1005;DHT22;491;53.480;10.174;2023-02-27T07:49:15;7.30;99.90
1005;DHT22;491;53.480;10.174;2023-02-27T07:51:41;7.60;99.90
1005;DHT22;491;53.480;10.174;2023-02-27T07:54:06;7.20;99.90
1005;DHT22;491;53.480;10.174;2023-02-27T07:56:32;7.80;99.90
1005;DHT22;491;53.480;10.174;2023-02-27T07:58:58;8.10;99.90
1005;DHT22;491;53.480;10.174;2023-02-27T08:01:23;8.20;99.90
1005;DHT22;491;53.480;10.174;2023-02-27T08:03:48;8.80;99.90
1005;DHT22;491;53.480;10.174;2023-02-27T08:06:14;9.00;99.90
1005;DHT22;491;53.480;10.174;2023-02-27T08:08:39;9.10;99.90
1005;DHT22;491;53.480;10.174;2023-02-27T08:11:11;9.60;99.90
1005;DHT22;491;53.480;10.174;2023-02-27T08:18:28;10.40;99.90
1005;DHT22;491;53.480;10.174;2023-02-27T08:20:55;10.40;99.90
1005;DHT22;491;53.480;10.174;2023-02-27T08:23:21;10.40;99.90
1005;DHT22;491;53.480;10.174;2023-02-27T08:25:47;10.70;99.90
1005;DHT22;491;53.480;10.174;2023-02-27T08:28:12;10.80;99.90
1005;DHT22;491;53.480;10.174;2023-02-27T08:30:38;11.20;99.90
1005;DHT22;491;53.480;10.174;2023-02-27T08:33:04;11.50;99.90
1005;DHT22;491;53.480;10.174;2023-02-27T08:35:30;11.10;99.90
1005;DHT22;491;53.480;10.174;2023-02-27T08:37:55;11.60;99.90
1005;DHT22;491;53.480;10.174;2023-02-27T08:40:21;11.50;99.90
1005;DHT22;491;53.480;10.174;2023-02-27T08:42:46;11.80;99.90
1005;DHT22;491;53.480;10.174;2023-02-27T08:45:12;12.20;99.90
1005;DHT22;491;53.480;10.174;2023-02-27T08:50:04;12.70;99.90
1005;DHT22;491;53.480;10.174;2023-02-27T08:52:33;12.50;99.90
1005;DHT22;491;53.480;10.174;2023-02-27T08:57:24;12.50;99.90
1005;DHT22;491;53.480;10.174;2023-02-27T08:59:50;11.20;99.90
1005;DHT22;491;53.480;10.174;2023-02-27T09:02:15;11.10;99.90
1005;DHT22;491;53.480;10.174;2023-02-27T09:04:40;12.00;99.90
1005;DHT22;491;53.480;10.174;2023-02-27T09:07:06;12.20;99.90
1005;DHT22;491;53.480;10.174;2023-02-27T09:09:32;11.80;99.90
1005;DHT22;491;53.480;10.174;2023-02-27T09:11:57;12.50;99.90
1005;DHT22;491;53.480;10.174;2023-02-27T09:14:23;12.80;99.90
1005;DHT22;491;53.480;10.174;2023-02-27T09:16:48;13.30;99.90
1005;DHT22;491;53.480;10.174;2023-02-27T09:21:41;12.90;99.90
1005;DHT22;491;53.480;10.174;2023-02-27T09:28:58;13.70;99.90
1005;DHT22;491;53.480;10.174;2023-02-27T09:33:50;13.20;99.90
1005;DHT22;491;53.480;10.174;2023-02-27T09:36:15;12.80;99.90
1005;DHT22;491;53.480;10.174;2023-02-27T09:38:43;14.00;99.90
1005;DHT22;491;53.480;10.174;2023-02-27T09:41:36;13.80;99.90
1005;DHT22;491;53.480;10.174;2023-02-27T09:44:04;13.00;99.90
1005;DHT22;491;53.480;10.174;2023-02-27T09:46:37;13.60;99.90
1005;DHT22;491;53.480;10.174;2023-02-27T09:49:03;14.00;99.90
1005;DHT22;491;53.480;10.174;2023-02-27T09:51:29;13.70;99.90
1005;DHT22;491;53.480;10.174;2023-02-27T09:53:57;13.30;99.90
1005;DHT22;491;53.480;10.174;2023-02-27T09:56:28;13.10;99.90
1005;DHT22;491;53.480;10.174;2023-02-27T09:59:17;13.90;1.00
1005;DHT22;491;53.480;10.174;2023-02-27T10:04:49;14.40;99.90
1005;DHT22;491;53.480;10.174;2023-02-27T10:07:31;13.30;99.90
1005;DHT22;491;53.480;10.174;2023-02-27T10:10:26;14.20;99.90
1005;DHT22;491;53.480;10.174;2023-02-27T10:15:41;14.20;99.90
1005;DHT22;491;53.480;10.174;2023-02-27T10:18:24;14.90;99.90
1005;DHT22;491;53.480;10.174;2023-02-27T10:26:38;15.70;99.90
1005;DHT22;491;53.480;10.174;2023-02-27T10:31:40;14.50;99.90
1005;DHT22;491;53.480;10.174;2023-02-27T10:34:09;15.40;99.90
1005;DHT22;491;53.480;10.174;2023-02-27T10:36:36;14.60;99.90
1005;DHT22;491;53.480;10.174;2023-02-27T10:39:06;14.70;99.90
1005;DHT22;491;53.480;10.174;2023-02-27T10:41:35;14.80;99.90
1005;DHT22;491;53.480;10.174;2023-02-27T10:46:32;15.50;1.00
1005;DHT22;491;53.480;10.174;2023-02-27T10:48:59;16.70;99.90
1005;DHT22;491;53.480;10.174;2023-02-27T11:04:36;10.20;1.00
1005;DHT22;491;53.480;10.174;2023-02-27T11:07:09;10.40;99.90
1005;DHT22;491;53.480;10.174;2023-02-27T11:09:36;10.80;99.90
1005;DHT22;491;53.480;10.174;2023-02-27T11:12:16;11.30;99.90
1005;DHT22;491;53.480;10.174;2023-02-27T11:17:35;12.20;1.00
1005;DHT22;491;53.480;10.174;2023-02-27T11:20:02;11.70;99.90
1005;DHT22;491;53.480;10.174;2023-02-27T11:22:31;11.50;99.90
1005;DHT22;491;53.480;10.174;2023-02-27T11:25:21;10.70;1.00
1005;DHT22;491;53.480;10.174;2023-02-27T11:27:48;10.30;99.90
1005;DHT22;491;53.480;10.174;2023-02-27T11:30:28;9.80;99.90
1005;DHT22;491;53.480;10.174;2023-02-27T11:32:56;10.00;99.90
1005;DHT22;491;53.480;10.174;2023-02-27T11:35:32;10.20;99.90
1005;DHT22;491;53.480;10.174;2023-02-27T11:38:06;10.20;99.90
1005;DHT22;491;53.480;10.174;2023-02-27T11:40:48;10.10;99.90
1005;DHT22;491;53.480;10.174;2023-02-27T11:43:19;10.00;99.90
1005;DHT22;491;53.480;10.174;2023-02-27T11:45:51;9.80;99.90
1005;DHT22;491;53.480;10.174;2023-02-27T11:48:31;9.40;99.90
1005;DHT22;491;53.480;10.174;2023-02-27T11:53:31;9.20;86.70
1005;DHT22;491;53.480;10.174;2023-02-27T11:56:00;9.60;99.90
1005;DHT22;491;53.480;10.174;2023-02-27T11:58:31;9.30;99.90
1005;DHT22;491;53.480;10.174;2023-02-27T12:01:06;9.30;99.90
1005;DHT22;491;53.480;10.174;2023-02-27T12:06:35;8.70;99.90
1005;DHT22;491;53.480;10.174;2023-02-27T12:11:43;8.20;99.90
1005;DHT22;491;53.480;10.174;2023-02-27T12:22:08;7.40;99.90
1005;DHT22;491;53.480;10.174;2023-02-27T12:24:43;9.60;99.90
1005;DHT22;491;53.480;10.174;2023-02-27T12:27:19;12.70;99.90
1005;DHT22;491;53.480;10.174;2023-02-27T12:34:50;15.20;99.90
1005;DHT22;491;53.480;10.174;2023-02-27T12:37:25;15.60;99.90
1005;DHT22;491;53.480;10.174;2023-02-27T12:45:17;10.30;99.90
1005;DHT22;491;53.480;10.174;2023-02-27T12:50:57;13.20;99.90
1005;DHT22;491;53.480;10.174;2023-02-27T12:53:57;14.90;99.90
1005;DHT22;491;53.480;10.174;2023-02-27T12:56:40;15.90;99.90
1005;DHT22;491;53.480;10.174;2023-02-27T12:59:39;15.60;99.90
1005;DHT22;491;53.480;10.174;2023-02-27T13:05:16;13.20;99.90
1005;DHT22;491;53.480;10.174;2023-02-27T13:13:08;9.90;32.40
1005;DHT22;491;53.480;10.174;2023-02-27T13:15:41;9.50;39.50
1005;DHT22;491;53.480;10.174;2023-02-27T13:18:28;9.10;36.20
1005;DHT22;491;53.480;10.174;2023-02-27T13:21:20;9.40;44.10
1005;DHT22;491;53.480;10.174;2023-02-27T13:26:32;9.90;50.00
1005;DHT22;491;53.480;10.174;2023-02-27T13:29:00;9.40;43.60
1005;DHT22;491;53.480;10.174;2023-02-27T13:31:35;9.90;49.90
1005;DHT22;491;53.480;10.174;2023-02-27T13:39:01;9.50;50.90
1005;DHT22;491;53.480;10.174;2023-02-27T13:43:59;8.70;43.30
1005;DHT22;491;53.480;10.174;2023-02-27T13:46:32;9.80;54.10
1005;DHT22;491;53.480;10.174;2023-02-27T13:51:45;9.90;59.30
1005;DHT22;491;53.480;10.174;2023-02-27T13:59:35;9.70;59.50
1005;DHT22;491;53.480;10.174;2023-02-27T14:04:38;9.20;55.70
1005;DHT22;491;53.480;10.174;2023-02-27T14:07:15;9.60;60.50
1005;DHT22;491;53.480;10.174;2023-02-27T14:09:46;9.70;58.90
1005;DHT22;491;53.480;10.174;2023-02-27T14:12:35;9.30;56.00
1005;DHT22;491;53.480;10.174;2023-02-27T14:15:04;9.30;58.00
1005;DHT22;491;53.480;10.174;2023-02-27T14:25:32;8.60;53.30
1005;DHT22;491;53.480;10.174;2023-02-27T14:27:59;8.90;57.00
1005;DHT22;491;53.480;10.174;2023-02-27T14:30:41;9.10;59.00
1005;DHT22;491;53.480;10.174;2023-02-27T14:35:49;9.20;57.70
1005;DHT22;491;53.480;10.174;2023-02-27T14:38:18;8.90;58.20
1005;DHT22;491;53.480;10.174;2023-02-27T14:41:01;8.40;56.50
1005;DHT22;491;53.480;10.174;2023-02-27T14:43:39;8.70;75.40
1005;DHT22;491;53.480;10.174;2023-02-27T14:46:13;8.50;55.60
1005;DHT22;491;53.480;10.174;2023-02-27T14:48:40;8.70;58.40
1005;DHT22;491;53.480;10.174;2023-02-27T14:51:06;8.50;57.60
1005;DHT22;491;53.480;10.174;2023-02-27T14:53:31;8.50;58.00
1005;DHT22;491;53.480;10.174;2023-02-27T14:55:58;8.40;58.20
1005;DHT22;491;53.480;10.174;2023-02-27T14:58:25;8.20;57.70
1005;DHT22;491;53.480;10.174;2023-02-27T15:01:04;8.40;59.20
1005;DHT22;491;53.480;10.174;2023-02-27T15:03:49;8.60;59.90
1005;DHT22;491;53.480;10.174;2023-02-27T15:06:23;8.70;60.60
1005;DHT22;491;53.480;10.174;2023-02-27T15:08:51;8.40;56.40
1005;DHT22;491;53.480;10.174;2023-02-27T15:11:20;8.30;58.00
1005;DHT22;491;53.480;10.174;2023-02-27T15:13:49;8.40;57.80
1005;DHT22;491;53.480;10.174;2023-02-27T15:16:36;8.40;59.40
1005;DHT22;491;53.480;10.174;2023-02-27T15:19:12;8.20;58.10
1005;DHT22;491;53.480;10.174;2023-02-27T15:21:51;8.10;57.70
1005;DHT22;491;53.480;10.174;2023-02-27T15:24:36;8.10;55.20
1005;DHT22;491;53.480;10.174;2023-02-27T15:29:42;7.60;43.60
1005;DHT22;491;53.480;10.174;2023-02-27T15:32:27;7.40;52.60
1005;DHT22;491;53.480;10.174;2023-02-27T15:34:57;7.30;48.90
1005;DHT22;491;53.480;10.174;2023-02-27T15:37:33;7.40;50.70
1005;DHT22;491;53.480;10.174;2023-02-27T15:42:30;7.20;38.70
1005;DHT22;491;53.480;10.174;2023-02-27T15:44:57;6.80;36.50
1005;DHT22;491;53.480;10.174;2023-02-27T15:47:32;6.70;46.10
1005;DHT22;491;53.480;10.174;2023-02-27T15:52:51;7.10;52.40
1005;DHT22;491;53.480;10.174;2023-02-27T15:55:26;7.00;49.70
1005;DHT22;491;53.480;10.174;2023-02-27T15:57:52;6.50;47.50
1005;DHT22;491;53.480;10.174;2023-02-27T16:00:19;6.30;47.00
1005;DHT22;491;53.480;10.174;2023-02-27T16:02:55;6.40;48.30
1005;DHT22;491;53.480;10.174;2023-02-27T16:05:24;6.50;52.40
1005;DHT22;491;53.480;10.174;2023-02-27T16:07:51;6.50;52.60
1005;DHT22;491;53.480;10.174;2023-02-27T16:10:20;6.60;54.80
1005;DHT22;491;53.480;10.174;2023-02-27T16:12:47;6.70;55.40
1005;DHT22;491;53.480;10.174;2023-02-27T16:20:38;6.50;62.00
1005;DHT22;491;53.480;10.174;2023-02-27T16:25:40;6.30;63.90
1005;DHT22;491;53.480;10.174;2023-02-27T16:28:12;6.30;70.20
1005;DHT22;491;53.480;10.174;2023-02-27T16:30:38;6.40;71.40
1005;DHT22;491;53.480;10.174;2023-02-27T16:33:05;6.20;76.10
1005;DHT22;491;53.480;10.174;2023-02-27T16:35:30;6.10;75.60
1005;DHT22;491;53.480;10.174;2023-02-27T16:38:00;6.00;73.80
1005;DHT22;491;53.480;10.174;2023-02-27T16:40:26;5.90;74.70
1005;DHT22;491;53.480;10.174;2023-02-27T16:42:52;5.80;79.00
1005;DHT22;491;53.480;10.174;2023-02-27T16:45:26;5.80;80.60
1005;DHT22;491;53.480;10.174;2023-02-27T16:47:55;5.60;88.30
1005;DHT22;491;53.480;10.174;2023-02-27T16:50:27;5.50;90.00
1005;DHT22;491;53.480;10.174;2023-02-27T16:52:56;5.40;94.30
1005;DHT22;491;53.480;10.174;2023-02-27T16:55:42;5.30;97.30
1005;DHT22;491;53.480;10.174;2023-02-27T16:58:13;5.30;99.90
1005;DHT22;491;53.480;10.174;2023-02-27T17:00:42;5.20;99.90
1005;DHT22;491;53.480;10.174;2023-02-27T17:03:08;5.20;99.90
1005;DHT22;491;53.480;10.174;2023-02-27T17:05:33;5.10;99.90
1005;DHT22;491;53.480;10.174;2023-02-27T17:07:59;5.10;99.90
1005;DHT22;491;53.480;10.174;2023-02-27T17:10:25;5.10;99.90
1005;DHT22;491;53.480;10.174;2023-02-27T17:12:51;5.10;99.90
1005;DHT22;491;53.480;10.174;2023-02-27T17:15:17;4.90;99.90
1005;DHT22;491;53.480;10.174;2023-02-27T17:17:43;4.90;99.90
1005;DHT22;491;53.480;10.174;2023-02-27T17:20:11;4.70;99.90
1005;DHT22;491;53.480;10.174;2023-02-27T17:22:39;4.70;99.90
1005;DHT22;491;53.480;10.174;2023-02-27T17:25:08;4.70;99.90
1005;DHT22;491;53.480;10.174;2023-02-27T17:27:34;4.70;99.90
1005;DHT22;491;53.480;10.174;2023-02-27T17:30:00;4.60;99.90
1005;DHT22;491;53.480;10.174;2023-02-27T17:32:26;4.60;99.90
1005;DHT22;491;53.480;10.174;2023-02-27T17:34:53;4.50;99.90
1005;DHT22;491;53.480;10.174;2023-02-27T17:37:19;4.50;1.00
1005;DHT22;491;53.480;10.174;2023-02-27T17:39:44;4.50;1.00
1005;DHT22;491;53.480;10.174;2023-02-27T17:42:19;4.30;1.00
1005;DHT22;491;53.480;10.174;2023-02-27T17:44:47;4.10;1.00
1005;DHT22;491;53.480;10.174;2023-02-27T17:47:22;4.00;1.00
1005;DHT22;491;53.480;10.174;2023-02-27T17:49:47;3.90;1.00
1005;DHT22;491;53.480;10.174;2023-02-27T17:52:13;3.80;1.00
1005;DHT22;491;53.480;10.174;2023-02-27T17:54:39;3.80;1.00
1005;DHT22;491;53.480;10.174;2023-02-27T17:57:05;3.70;9.80
1005;DHT22;491;53.480;10.174;2023-02-27T17:59:31;3.80;99.90
1005;DHT22;491;53.480;10.174;2023-02-27T18:01:57;3.70;99.90
1005;DHT22;491;53.480;10.174;2023-02-27T18:04:25;3.60;99.90
1005;DHT22;491;53.480;10.174;2023-02-27T18:06:51;3.60;99.90
1005;DHT22;491;53.480;10.174;2023-02-27T18:09:20;3.60;99.90
1005;DHT22;491;53.480;10.174;2023-02-27T18:11:45;3.50;1.00
1005;DHT22;491;53.480;10.174;2023-02-27T18:14:10;3.60;1.00
1005;DHT22;491;53.480;10.174;2023-02-27T18:16:36;3.70;1.00
1005;DHT22;491;53.480;10.174;2023-02-27T18:19:03;3.60;1.00
1005;DHT22;491;53.480;10.174;2023-02-27T18:21:29;3.40;1.00
1005;DHT22;491;53.480;10.174;2023-02-27T18:23:54;3.30;99.90
1005;DHT22;491;53.480;10.174;2023-02-27T18:26:23;3.40;99.90
1005;DHT22;491;53.480;10.174;2023-02-27T18:28:48;3.60;76.40
1005;DHT22;491;53.480;10.174;2023-02-27T18:31:25;3.70;1.00
1005;DHT22;491;53.480;10.174;2023-02-27T18:33:51;3.70;1.00
1005;DHT22;491;53.480;10.174;2023-02-27T18:36:16;3.80;99.90
1005;DHT22;491;53.480;10.174;2023-02-27T18:38:42;3.90;1.00
1005;DHT22;491;53.480;10.174;2023-02-27T18:41:08;3.90;1.00
1005;DHT22;491;53.480;10.174;2023-02-27T18:43:35;3.70;19.00
1005;DHT22;491;53.480;10.174;2023-02-27T18:46:01;3.80;99.90
1005;DHT22;491;53.480;10.174;2023-02-27T18:48:27;4.10;99.90
1005;DHT22;491;53.480;10.174;2023-02-27T18:50:58;4.00;99.90
1005;DHT22;491;53.480;10.174;2023-02-27T18:53:24;3.80;1.00
1005;DHT22;491;53.480;10.174;2023-02-27T18:55:49;3.90;99.90
1005;DHT22;491;53.480;10.174;2023-02-27T18:58:18;4.00;99.90
1005;DHT22;491;53.480;10.174;2023-02-27T19:00:43;4.00;1.00
1005;DHT22;491;53.480;10.174;2023-02-27T19:03:11;4.20;99.90
1005;DHT22;491;53.480;10.174;2023-02-27T19:05:40;4.20;99.90
1005;DHT22;491;53.480;10.174;2023-02-27T19:08:06;4.10;1.00
1005;DHT22;491;53.480;10.174;2023-02-27T19:10:31;4.00;99.90
1005;DHT22;491;53.480;10.174;2023-02-27T19:12:59;4.00;91.50
1005;DHT22;491;53.480;10.174;2023-02-27T19:15:24;4.10;1.00
1005;DHT22;491;53.480;10.174;2023-02-27T19:17:50;4.10;99.90
1005;DHT22;491;53.480;10.174;2023-02-27T19:20:16;4.20;1.00
1005;DHT22;491;53.480;10.174;2023-02-27T19:22:42;4.30;99.90
1005;DHT22;491;53.480;10.174;2023-02-27T19:25:08;4.30;1.00
1005;DHT22;491;53.480;10.174;2023-02-27T19:27:33;4.30;99.90
1005;DHT22;491;53.480;10.174;2023-02-27T19:29:59;4.20;99.90
1005;DHT22;491;53.480;10.174;2023-02-27T19:32:26;4.20;1.00
1005;DHT22;491;53.480;10.174;2023-02-27T19:34:51;4.10;99.90
1005;DHT22;491;53.480;10.174;2023-02-27T19:37:17;4.20;99.90
1005;DHT22;491;53.480;10.174;2023-02-27T19:39:43;4.20;99.90
1005;DHT22;491;53.480;10.174;2023-02-27T19:42:08;4.20;1.00
1005;DHT22;491;53.480;10.174;2023-02-27T19:44:34;4.10;99.90
1005;DHT22;491;53.480;10.174;2023-02-27T19:47:00;4.00;99.90
1005;DHT22;491;53.480;10.174;2023-02-27T19:49:25;4.00;1.00
1005;DHT22;491;53.480;10.174;2023-02-27T19:51:51;4.00;1.00
1005;DHT22;491;53.480;10.174;2023-02-27T19:54:16;4.00;1.00
1005;DHT22;491;53.480;10.174;2023-02-27T19:56:42;3.90;99.90
1005;DHT22;491;53.480;10.174;2023-02-27T19:59:09;4.00;1.00
1005;DHT22;491;53.480;10.174;2023-02-27T20:01:35;4.10;73.60
1005;DHT22;491;53.480;10.174;2023-02-27T20:04:03;4.10;1.00
1005;DHT22;491;53.480;10.174;2023-02-27T20:06:31;4.20;1.00
1005;DHT22;491;53.480;10.174;2023-02-27T20:09:01;4.40;1.00
1005;DHT22;491;53.480;10.174;2023-02-27T20:11:28;4.40;1.00
1005;DHT22;491;53.480;10.174;2023-02-27T20:13:57;4.40;92.60
1005;DHT22;491;53.480;10.174;2023-02-27T20:16:22;4.40;1.00
1005;DHT22;491;53.480;10.174;2023-02-27T20:18:50;4.20;99.90
1005;DHT22;491;53.480;10.174;2023-02-27T20:21:21;4.20;1.00
1005;DHT22;491;53.480;10.174;2023-02-27T20:23:48;4.20;99.90
1005;DHT22;491;53.480;10.174;2023-02-27T20:28:42;4.40;1.00
1005;DHT22;491;53.480;10.174;2023-02-27T20:31:09;4.40;1.00
1005;DHT22;491;53.480;10.174;2023-02-27T20:33:36;4.40;99.90
1005;DHT22;491;53.480;10.174;2023-02-27T20:36:06;4.30;1.00
1005;DHT22;491;53.480;10.174;2023-02-27T20:38:32;4.20;1.00
1005;DHT22;491;53.480;10.174;2023-02-27T20:41:00;4.20;1.00
1005;DHT22;491;53.480;10.174;2023-02-27T20:43:29;4.20;1.00
1005;DHT22;491;53.480;10.174;2023-02-27T20:45:54;4.20;99.90
1005;DHT22;491;53.480;10.174;2023-02-27T20:48:20;4.10;1.00
1005;DHT22;491;53.480;10.174;2023-02-27T20:50:45;4.10;99.90
1005;DHT22;491;53.480;10.174;2023-02-27T20:53:11;4.20;99.90
1005;DHT22;491;53.480;10.174;2023-02-27T20:55:36;4.20;1.00
1005;DHT22;491;53.480;10.174;2023-02-27T20:58:02;4.10;1.00
1005;DHT22;491;53.480;10.174;2023-02-27T21:00:27;3.90;1.00
1005;DHT22;491;53.480;10.174;2023-02-27T21:02:53;4.00;99.90
1005;DHT22;491;53.480;10.174;2023-02-27T21:05:19;3.90;99.90
1005;DHT22;491;53.480;10.174;2023-02-27T21:07:45;3.90;1.00
1005;DHT22;491;53.480;10.174;2023-02-27T21:10:12;4.00;1.00
1005;DHT22;491;53.480;10.174;2023-02-27T21:12:38;4.10;1.00
1005;DHT22;491;53.480;10.174;2023-02-27T21:15:07;4.10;30.90
1005;DHT22;491;53.480;10.174;2023-02-27T21:17:32;4.00;1.00
1005;DHT22;491;53.480;10.174;2023-02-27T21:19:58;4.00;1.00
1005;DHT22;491;53.480;10.174;2023-02-27T21:22:23;4.00;99.90
1005;DHT22;491;53.480;10.174;2023-02-27T21:24:49;3.90;1.00
1005;DHT22;491;53.480;10.174;2023-02-27T21:27:17;3.90;1.00
1005;DHT22;491;53.480;10.174;2023-02-27T21:29:45;3.90;99.90
1005;DHT22;491;53.480;10.174;2023-02-27T21:32:10;4.00;99.90
1005;DHT22;491;53.480;10.174;2023-02-27T21:34:36;4.00;99.90
1005;DHT22;491;53.480;10.174;2023-02-27T21:37:01;4.00;99.90
1005;DHT22;491;53.480;10.174;2023-02-27T21:39:30;3.90;99.90
1005;DHT22;491;53.480;10.174;2023-02-27T21:41:56;4.00;99.90
1005;DHT22;491;53.480;10.174;2023-02-27T21:44:23;4.00;99.90
1005;DHT22;491;53.480;10.174;2023-02-27T21:46:50;4.00;1.00
1005;DHT22;491;53.480;10.174;2023-02-27T21:49:18;3.90;99.90
1005;DHT22;491;53.480;10.174;2023-02-27T21:51:44;3.90;1.00
1005;DHT22;491;53.480;10.174;2023-02-27T21:54:11;3.90;1.00
1005;DHT22;491;53.480;10.174;2023-02-27T21:56:38;3.90;1.00
1005;DHT22;491;53.480;10.174;2023-02-27T21:59:05;3.90;99.90
1005;DHT22;491;53.480;10.174;2023-02-27T22:01:31;3.80;99.90
1005;DHT22;491;53.480;10.174;2023-02-27T22:03:56;3.80;1.00
1005;DHT22;491;53.480;10.174;2023-02-27T22:06:24;3.90;1.00
1005;DHT22;491;53.480;10.174;2023-02-27T22:08:56;3.80;1.00
1005;DHT22;491;53.480;10.174;2023-02-27T22:11:23;3.90;99.90
1005;DHT22;491;53.480;10.174;2023-02-27T22:13:50;3.80;1.00
1005;DHT22;491;53.480;10.174;2023-02-27T22:16:16;3.80;99.90
1005;DHT22;491;53.480;10.174;2023-02-27T22:18:41;3.60;1.00
1005;DHT22;491;53.480;10.174;2023-02-27T22:21:09;3.60;1.00
1005;DHT22;491;53.480;10.174;2023-02-27T22:23:35;3.70;99.90
1005;DHT22;491;53.480;10.174;2023-02-27T22:26:04;3.80;1.00
1005;DHT22;491;53.480;10.174;2023-02-27T22:28:31;3.80;99.90
1005;DHT22;491;53.480;10.174;2023-02-27T22:31:17;3.70;1.00
1005;DHT22;491;53.480;10.174;2023-02-27T22:33:44;3.70;1.00
1005;DHT22;491;53.480;10.174;2023-02-27T22:36:18;3.60;99.90
1005;DHT22;491;53.480;10.174;2023-02-27T22:38:44;3.60;99.90
1005;DHT22;491;53.480;10.174;2023-02-27T22:41:13;3.70;99.90
1005;DHT22;491;53.480;10.174;2023-02-27T22:43:39;3.80;97.90
1005;DHT22;491;53.480;10.174;2023-02-27T22:46:08;3.80;1.00
1005;DHT22;491;53.480;10.174;2023-02-27T22:48:34;3.80;1.00
1005;DHT22;491;53.480;10.174;2023-02-27T22:51:05;3.80;1.00
1005;DHT22;491;53.480;10.174;2023-02-27T22:53:35;3.80;99.90
1005;DHT22;491;53.480;10.174;2023-02-27T22:56:09;3.70;80.50
1005;DHT22;491;53.480;10.174;2023-02-27T22:58:37;3.70;99.90
1005;DHT22;491;53.480;10.174;2023-02-27T23:01:08;3.80;1.00
1005;DHT22;491;53.480;10.174;2023-02-27T23:03:34;3.60;1.00
1005;DHT22;491;53.480;10.174;2023-02-27T23:05:59;3.60;1.00
1005;DHT22;491;53.480;10.174;2023-02-27T23:08:25;3.60;1.00
1005;DHT22;491;53.480;10.174;2023-02-27T23:10:51;3.60;99.90
1005;DHT22;491;53.480;10.174;2023-02-27T23:13:16;3.60;1.00
1005;DHT22;491;53.480;10.174;2023-02-27T23:15:41;3.60;1.00
1005;DHT22;491;53.480;10.174;2023-02-27T23:18:07;3.40;1.00
1005;DHT22;491;53.480;10.174;2023-02-27T23:20:36;3.40;99.90
1005;DHT22;491;53.480;10.174;2023-02-27T23:23:13;3.40;99.90
1005;DHT22;491;53.480;10.174;2023-02-27T23:25:39;3.50;1.00
1005;DHT22;491;53.480;10.174;2023-02-27T23:28:05;3.50;1.00
1005;DHT22;491;53.480;10.174;2023-02-27T23:30:31;3.50;99.90
1005;DHT22;491;53.480;10.174;2023-02-27T23:32:57;3.50;99.90
1005;DHT22;491;53.480;10.174;2023-02-27T23:35:24;3.50;99.90
1005;DHT22;491;53.480;10.174;2023-02-27T23:37:54;3.40;1.00
1005;DHT22;491;53.480;10.174;2023-02-27T23:40:21;3.30;1.00
1005;DHT22;491;53.480;10.174;2023-02-27T23:42:47;3.30;99.90
1005;DHT22;491;53.480;10.174;2023-02-27T23:45:13;3.30;1.00
1005;DHT22;491;53.480;10.174;2023-02-27T23:47:55;3.20;99.90
1005;DHT22;491;53.480;10.174;2023-02-27T23:50:24;3.10;99.90
1005;DHT22;491;53.480;10.174;2023-02-27T23:52:51;3.10;1.00
1005;DHT22;491;53.480;10.174;2023-02-27T23:55:18;2.90;1.00
1005;DHT22;491;53.480;10.174;2023-02-27T23:57:44;2.70;1.00
